Terminal Aerodrome Forecast
Issued by NWS

Current Version | Previous Version | Text Only | Print | Product List | Glossary On
Versions: 1 2 3 4 5 6 7 8 9 10 11 12 13 14 15 16 17 18 19 20 21 22 23 24
000
FTUS44 KOUN 051722
TAFGAG
TAF
KGAG 051722Z 0518/0618 14017G23KT P6SM SCT012 BKN022 OVC050
      TEMPO 0520/0523 OVC015
     FM060000 15017G25KT P6SM OVC030
      TEMPO 0602/0606 6SM -TSRA OVC015CB
     FM060600 16013G22KT P6SM BKN050=

USA.gov is the U.S. government's official web portal to all federal, state and local government web resources and services.